createdAt,value
2023-10-06T00:00:36.481Z,70.58
2023-10-06T00:03:40.035Z,69.44
2023-10-06T00:06:43.908Z,70.15
2023-10-06T00:09:46.508Z,68.85
2023-10-06T00:12:50.489Z,68.58
2023-10-06T00:15:53.120Z,68.88
2023-10-06T00:19:00.572Z,69.97
2023-10-06T00:22:18.306Z,69.94
2023-10-06T00:25:21.227Z,69.36
2023-10-06T00:28:27.674Z,69.03
2023-10-06T00:31:32.960Z,69.67
2023-10-06T00:34:38.482Z,68.59
2023-10-06T00:37:41.343Z,67.41
2023-10-06T00:40:52.572Z,67.56
2023-10-06T00:43:56.423Z,66.08
2023-10-06T00:47:00.626Z,67.13
2023-10-06T00:50:07.010Z,68.20
2023-10-06T00:53:11.746Z,67.08
2023-10-06T00:56:17.320Z,67.33
2023-10-06T00:59:24.770Z,67.40
2023-10-06T01:02:27.379Z,67.55
2023-10-06T01:05:34.537Z,67.85
2023-10-06T01:08:54.980Z,68.70
2023-10-06T01:12:06.118Z,69.35
2023-10-06T01:15:21.990Z,69.82
2023-10-06T01:18:26.309Z,70.25
2023-10-06T01:21:31.508Z,70.62
2023-10-06T01:24:34.010Z,71.42
2023-10-06T01:27:36.415Z,71.70
2023-10-06T01:30:39.262Z,72.40
2023-10-06T01:33:41.691Z,72.33
2023-10-06T01:36:44.397Z,72.12
2023-10-06T01:39:49.795Z,72.44
2023-10-06T01:42:52.707Z,73.15
2023-10-06T01:45:55.352Z,73.11
2023-10-06T01:48:57.920Z,73.00
2023-10-06T01:52:09.513Z,73.20
2023-10-06T01:55:13.710Z,73.18
2023-10-06T01:58:16.540Z,73.32
2023-10-06T02:01:22.041Z,73.39
2023-10-06T02:04:26.799Z,74.12
2023-10-06T02:07:29.226Z,74.32
2023-10-06T02:10:34.012Z,74.08
2023-10-06T02:13:39.155Z,73.76
2023-10-06T02:16:42.113Z,73.82
2023-10-06T02:19:44.588Z,73.66
2023-10-06T02:22:47.006Z,73.90
2023-10-06T02:25:49.695Z,74.13
2023-10-06T02:28:52.454Z,72.95
2023-10-06T02:32:08.407Z,72.89
2023-10-06T02:35:13.675Z,72.67
2023-10-06T02:38:16.553Z,71.15
2023-10-06T02:41:20.793Z,71.25
2023-10-06T02:44:24.152Z,71.43
2023-10-06T02:47:28.841Z,71.45
2023-10-06T02:50:34.782Z,70.88
2023-10-06T02:53:37.247Z,70.56
2023-10-06T02:56:40.782Z,69.58
2023-10-06T02:59:49.616Z,69.56
2023-10-06T03:03:22.801Z,68.39
2023-10-06T03:06:33.749Z,67.67
2023-10-06T03:09:47.184Z,66.90
2023-10-06T03:12:50.551Z,65.81
2023-10-06T03:15:53.471Z,66.01
2023-10-06T03:18:55.952Z,65.87
2023-10-06T03:22:01.357Z,67.46
2023-10-06T03:25:15.484Z,67.56
2023-10-06T03:28:26.624Z,68.58
2023-10-06T03:31:48.494Z,68.51
2023-10-06T03:34:56.660Z,68.20
2023-10-06T03:38:09.788Z,66.82
2023-10-06T03:41:33.777Z,66.71
2023-10-06T03:44:36.612Z,67.63
2023-10-06T03:47:39.270Z,68.73
2023-10-06T03:50:45.422Z,67.58
2023-10-06T03:53:52.029Z,67.64
2023-10-06T03:56:55.145Z,68.11
2023-10-06T03:59:59.321Z,68.21
2023-10-06T04:03:25.913Z,68.67
2023-10-06T04:06:36.466Z,68.58
2023-10-06T04:09:42.088Z,67.83
2023-10-06T04:12:44.727Z,68.05
2023-10-06T04:15:50.472Z,68.08
2023-10-06T04:18:55.886Z,68.45
2023-10-06T04:22:17.144Z,68.78
2023-10-06T04:25:38.749Z,68.45
2023-10-06T04:28:41.314Z,68.68
2023-10-06T04:31:56.542Z,68.57
2023-10-06T04:35:17.211Z,68.46
2023-10-06T04:38:26.545Z,68.60
2023-10-06T04:41:56.558Z,68.83
2023-10-06T04:45:08.485Z,68.80
2023-10-06T04:48:11.353Z,69.05
2023-10-06T04:51:35.692Z,68.53
2023-10-06T04:54:49.110Z,69.03
2023-10-06T04:57:54.498Z,68.96
2023-10-06T05:01:09.115Z,68.91
2023-10-06T05:04:12.323Z,69.37
2023-10-06T05:07:33.314Z,69.61
2023-10-06T05:10:41.849Z,69.67
2023-10-06T05:13:55.037Z,70.26
2023-10-06T05:17:45.738Z,70.03
2023-10-06T05:21:10.103Z,69.71
2023-10-06T05:24:21.777Z,69.31
2023-10-06T05:27:27.602Z,69.15
2023-10-06T05:30:48.604Z,68.82
2023-10-06T05:33:54.200Z,68.34
2023-10-06T05:37:24.270Z,68.02
2023-10-06T05:40:31.052Z,67.45
2023-10-06T05:43:36.700Z,67.60
2023-10-06T05:47:09.400Z,67.36
2023-10-06T05:50:31.146Z,67.21
2023-10-06T05:53:40.501Z,67.14
2023-10-06T05:56:47.327Z,66.66
2023-10-06T06:00:02.685Z,66.53
2023-10-06T06:03:32.829Z,66.36
2023-10-06T06:06:37.414Z,66.20
2023-10-06T06:09:49.186Z,67.77
2023-10-06T06:12:51.694Z,67.63
2023-10-06T06:15:58.736Z,67.60
2023-10-06T06:19:12.355Z,68.93
2023-10-06T06:22:30.871Z,68.15
2023-10-06T06:25:48.221Z,67.16
2023-10-06T06:29:10.117Z,66.43
2023-10-06T06:32:33.890Z,67.72
2023-10-06T06:35:54.588Z,66.33
2023-10-06T06:39:04.375Z,66.36
2023-10-06T06:42:18.285Z,65.54
2023-10-06T06:45:21.892Z,65.47
2023-10-06T06:48:27.751Z,66.00
2023-10-06T06:51:59.945Z,66.40
2023-10-06T06:55:14.094Z,65.17
2023-10-06T06:58:33.994Z,65.66
2023-10-06T07:02:07.311Z,65.45
2023-10-06T07:05:25.654Z,63.98
2023-10-06T07:12:13.387Z,63.41
2023-10-06T07:15:18.972Z,63.23
2023-10-06T07:18:28.175Z,63.13
2023-10-06T07:21:31.346Z,61.50
2023-10-06T07:24:33.954Z,60.73
2023-10-06T07:28:13.778Z,59.55
2023-10-06T07:31:44.159Z,59.13
2023-10-06T07:34:54.641Z,58.24
2023-10-06T07:37:57.339Z,56.01
2023-10-06T07:41:06.804Z,56.20
2023-10-06T07:44:19.845Z,55.04
2023-10-06T07:47:32.789Z,54.01
2023-10-06T07:50:41.065Z,53.09
2023-10-06T07:53:49.759Z,52.58
2023-10-06T07:57:04.401Z,51.34
2023-10-06T08:00:10.259Z,52.72
2023-10-06T08:03:45.600Z,51.27
2023-10-06T08:06:48.136Z,51.12
2023-10-06T08:10:14.838Z,49.73
2023-10-06T08:13:17.362Z,48.19
2023-10-06T08:16:22.786Z,49.33
2023-10-06T08:19:40.649Z,48.20
2023-10-06T08:22:53.177Z,47.93
2023-10-06T08:26:08.693Z,47.51
2023-10-06T08:29:16.925Z,46.90
2023-10-06T08:32:44.055Z,45.63
2023-10-06T08:36:03.221Z,45.33
2023-10-06T08:39:05.850Z,45.61
2023-10-06T08:42:36.599Z,45.08
2023-10-06T08:45:42.903Z,42.29
2023-10-06T08:48:46.727Z,43.56
2023-10-06T08:52:10.145Z,42.01
2023-10-06T08:55:26.856Z,42.33
2023-10-06T08:58:30.609Z,43.93
2023-10-06T09:01:35.953Z,41.15
2023-10-06T09:04:41.098Z,39.85
2023-10-06T09:07:59.424Z,40.82
2023-10-06T09:11:02.843Z,39.34
2023-10-06T09:14:14.414Z,40.13
2023-10-06T09:17:17.450Z,39.03
2023-10-06T09:20:31.195Z,38.18
2023-10-06T09:24:03.473Z,39.01
2023-10-06T09:27:22.720Z,37.97
2023-10-06T09:30:25.601Z,37.26
2023-10-06T09:33:55.894Z,37.62
2023-10-06T09:37:42.138Z,35.77
2023-10-06T09:40:48.309Z,35.30
2023-10-06T09:43:58.421Z,35.52
2023-10-06T09:47:01.580Z,34.45
2023-10-06T09:50:05.026Z,34.05
2023-10-06T09:53:09.423Z,35.46
2023-10-06T09:56:18.877Z,34.72
2023-10-06T09:59:28.423Z,33.29
2023-10-06T10:02:39.134Z,31.24
2023-10-06T10:06:02.168Z,32.26
2023-10-06T10:09:08.870Z,33.60
2023-10-06T10:13:02.253Z,31.74
2023-10-06T10:16:51.060Z,31.82
2023-10-06T10:19:54.573Z,29.85
2023-10-06T10:23:15.823Z,29.42
2023-10-06T10:26:37.044Z,29.92
2023-10-06T10:29:42.161Z,30.32
2023-10-06T10:32:56.976Z,30.88
2023-10-06T10:36:18.950Z,29.03
2023-10-06T10:39:53.561Z,28.30
2023-10-06T10:43:14.097Z,27.62
2023-10-06T10:46:45.822Z,28.85
2023-10-06T10:49:48.744Z,26.58
2023-10-06T10:53:20.837Z,28.10
2023-10-06T10:57:04.710Z,27.77
2023-10-06T11:00:35.054Z,26.74
2023-10-06T11:03:40.365Z,26.24
2023-10-06T11:06:51.218Z,25.65
2023-10-06T11:10:36.556Z,24.25
2023-10-06T11:13:54.078Z,25.40
2023-10-06T11:17:15.994Z,24.44
2023-10-06T11:20:23.472Z,23.15
2023-10-06T11:23:45.174Z,23.61
2023-10-06T11:27:16.275Z,22.73
2023-10-06T11:30:27.116Z,23.29
2023-10-06T11:33:38.553Z,23.17
2023-10-06T11:36:49.676Z,22.82
2023-10-06T11:40:11.045Z,20.99
2023-10-06T11:43:19.109Z,22.38
2023-10-06T11:46:21.711Z,23.16
2023-10-06T11:49:27.064Z,22.95
2023-10-06T11:52:41.471Z,22.62
2023-10-06T11:55:43.960Z,22.02
2023-10-06T11:58:49.346Z,21.78
2023-10-06T12:02:10.681Z,21.27
2023-10-06T12:05:24.254Z,22.67
2023-10-06T12:08:45.850Z,23.72
2023-10-06T12:11:48.779Z,22.96
2023-10-06T12:15:07.518Z,22.21
2023-10-06T12:18:34.761Z,22.60
2023-10-06T12:21:37.194Z,21.22
2023-10-06T12:24:40.587Z,20.91
2023-10-06T12:27:46.214Z,20.91
2023-10-06T12:30:49.092Z,21.28
2023-10-06T12:33:56.985Z,22.25
2023-10-06T12:37:29.718Z,21.03
2023-10-06T12:40:39.783Z,22.70
2023-10-06T12:43:42.744Z,21.91
2023-10-06T12:46:46.871Z,22.31
2023-10-06T12:49:52.719Z,21.21
2023-10-06T12:57:54.181Z,21.75
2023-10-06T13:01:52.262Z,21.69
2023-10-06T13:05:44.293Z,22.31
2023-10-06T13:08:47.001Z,23.29
2023-10-06T13:11:49.439Z,22.47
2023-10-06T13:15:39.311Z,23.47
2023-10-06T13:19:00.822Z,24.73
2023-10-06T13:22:15.103Z,24.92
2023-10-06T13:25:45.845Z,23.67
2023-10-06T13:29:04.893Z,24.86
2023-10-06T13:32:11.490Z,25.14
2023-10-06T13:35:27.169Z,26.37
2023-10-06T13:38:45.657Z,25.40
2023-10-06T13:41:48.346Z,25.85
2023-10-06T13:44:51.919Z,27.74
2023-10-06T13:48:32.348Z,29.17
2023-10-06T13:51:57.321Z,29.41
2023-10-06T13:55:02.502Z,30.97
2023-10-06T13:58:10.833Z,31.85
2023-10-06T14:01:13.725Z,30.97
2023-10-06T14:04:32.547Z,30.02
2023-10-06T14:07:50.389Z,29.93
2023-10-06T14:11:21.201Z,29.82
2023-10-06T14:14:44.543Z,31.26
2023-10-06T14:22:31.717Z,33.33
2023-10-06T14:25:49.194Z,32.96
2023-10-06T14:28:59.832Z,32.79
2023-10-06T14:32:45.761Z,30.82
2023-10-06T14:36:00.453Z,29.06
2023-10-06T14:39:21.746Z,28.48
2023-10-06T14:42:42.844Z,29.39
2023-10-06T14:46:00.567Z,29.29
2023-10-06T14:49:16.573Z,29.30
2023-10-06T14:53:14.666Z,27.00
2023-10-06T14:56:29.234Z,22.59
2023-10-06T14:59:43.310Z,21.70
2023-10-06T15:02:58.400Z,23.32
2023-10-06T15:06:07.637Z,23.53
2023-10-06T15:09:18.884Z,25.41
2023-10-06T15:12:22.554Z,24.44
2023-10-06T15:15:52.397Z,23.53
2023-10-06T15:19:10.112Z,26.43
2023-10-06T15:22:15.557Z,29.39
2023-10-06T15:25:31.352Z,31.57
2023-10-06T15:28:45.792Z,33.30
2023-10-06T15:31:51.190Z,34.15
2023-10-06T15:34:53.913Z,35.19
2023-10-06T15:38:06.804Z,36.27
2023-10-06T15:41:24.608Z,36.72
2023-10-06T15:44:28.801Z,38.40
2023-10-06T15:47:31.551Z,39.50
2023-10-06T15:50:58.550Z,40.32
2023-10-06T15:54:17.379Z,40.82
2023-10-06T15:57:35.142Z,41.32
2023-10-06T16:00:43.683Z,43.16
2023-10-06T16:04:18.431Z,43.54
2023-10-06T16:07:37.478Z,44.41
2023-10-06T16:11:24.096Z,46.09
2023-10-06T16:18:14.042Z,47.07
2023-10-06T16:21:29.844Z,48.76
2023-10-06T16:24:57.812Z,49.21
2023-10-06T16:28:09.211Z,49.15
2023-10-06T16:31:21.186Z,50.18
2023-10-06T16:34:35.974Z,49.73
2023-10-06T16:37:56.083Z,51.12
2023-10-06T16:41:04.823Z,50.98
2023-10-06T16:44:09.325Z,51.99
2023-10-06T16:47:14.507Z,52.05
2023-10-06T16:50:17.198Z,52.95
2023-10-06T16:53:38.022Z,53.69
2023-10-06T16:56:44.114Z,54.19
2023-10-06T17:00:26.671Z,54.33
2023-10-06T17:03:35.304Z,54.52
2023-10-06T17:06:41.226Z,55.09
2023-10-06T17:09:47.157Z,55.63
2023-10-06T17:12:55.194Z,55.87
2023-10-06T17:16:32.588Z,55.67
2023-10-06T17:19:35.448Z,55.95
2023-10-06T17:22:38.778Z,56.17
2023-10-06T17:25:44.054Z,56.44
2023-10-06T17:29:03.187Z,57.35
2023-10-06T17:32:09.275Z,58.13
2023-10-06T17:35:11.888Z,58.88
2023-10-06T17:38:23.647Z,59.01
2023-10-06T17:41:26.462Z,59.08
2023-10-06T17:48:31.601Z,60.49
2023-10-06T17:51:34.524Z,60.70
2023-10-06T17:54:37.224Z,61.08
2023-10-06T17:58:01.170Z,61.12
2023-10-06T18:01:23.418Z,61.94
2023-10-06T18:04:26.114Z,61.13
2023-10-06T18:07:37.618Z,61.76
2023-10-06T18:10:58.525Z,61.55
2023-10-06T18:14:34.369Z,62.36
2023-10-06T18:17:36.911Z,63.53
2023-10-06T18:21:04.209Z,63.36
2023-10-06T18:24:38.221Z,63.73
2023-10-06T18:28:02.136Z,63.44
2023-10-06T18:31:04.621Z,64.01
2023-10-06T18:34:13.412Z,63.48
2023-10-06T18:37:46.863Z,64.60
2023-10-06T18:40:59.826Z,64.43
2023-10-06T18:44:02.387Z,64.60
2023-10-06T18:47:11.558Z,64.86
2023-10-06T18:50:22.848Z,64.92
2023-10-06T18:53:29.844Z,65.45
2023-10-06T18:56:51.264Z,65.98
2023-10-06T19:00:39.825Z,66.15
2023-10-06T19:03:50.131Z,66.22
2023-10-06T19:06:53.958Z,66.27
2023-10-06T19:09:56.665Z,66.60
2023-10-06T19:13:05.172Z,67.45
2023-10-06T19:16:13.932Z,67.55
2023-10-06T19:19:19.138Z,67.75
2023-10-06T19:22:47.400Z,68.11
2023-10-06T19:25:57.474Z,68.05
2023-10-06T19:29:10.122Z,68.29
2023-10-06T19:32:17.306Z,68.63
2023-10-06T19:44:32.768Z,69.35
2023-10-06T19:47:37.247Z,68.93
2023-10-06T19:50:41.199Z,69.44
2023-10-06T19:53:48.291Z,69.71
2023-10-06T19:56:58.276Z,70.11
2023-10-06T20:00:14.594Z,69.25
2023-10-06T20:03:18.752Z,70.27
2023-10-06T20:06:22.241Z,69.78
2023-10-06T20:12:52.827Z,69.43
2023-10-06T20:16:14.871Z,70.68
2023-10-06T20:19:27.779Z,71.05
2023-10-06T20:22:32.430Z,70.73
2023-10-06T20:25:36.188Z,71.20
2023-10-06T20:28:39.718Z,71.41
2023-10-06T20:32:40.760Z,71.54
2023-10-06T20:35:46.166Z,71.14
2023-10-06T20:38:58.479Z,71.88
2023-10-06T20:42:04.529Z,72.16
2023-10-06T20:45:13.332Z,72.40
2023-10-06T20:48:46.586Z,72.40
2023-10-06T20:51:55.426Z,72.62
2023-10-06T20:55:01.034Z,73.03
2023-10-06T20:58:24.316Z,72.81
2023-10-06T21:02:08.162Z,73.22
2023-10-06T21:05:30.175Z,73.34
2023-10-06T21:08:43.053Z,72.78
2023-10-06T21:12:23.838Z,72.53
2023-10-06T21:15:36.645Z,73.24
2023-10-06T21:18:45.679Z,72.76
2023-10-06T21:21:48.179Z,73.39
2023-10-06T21:25:06.117Z,73.34
2023-10-06T21:28:41.096Z,73.40
2023-10-06T21:31:54.286Z,73.59
2023-10-06T21:35:01.395Z,73.90
2023-10-06T21:38:06.337Z,73.98
2023-10-06T21:41:29.743Z,74.38
2023-10-06T21:44:32.396Z,74.25
2023-10-06T21:47:35.012Z,73.90
2023-10-06T21:50:38.101Z,74.12
2023-10-06T21:53:51.590Z,74.29
2023-10-06T21:57:13.631Z,74.22
2023-10-06T22:00:30.628Z,74.47
2023-10-06T22:03:41.945Z,74.51
2023-10-06T22:07:22.547Z,74.75
2023-10-06T22:10:26.518Z,75.04
2023-10-06T22:13:33.320Z,74.14
2023-10-06T22:16:36.556Z,74.18
2023-10-06T22:19:43.533Z,75.07
2023-10-06T22:22:46.302Z,75.06
2023-10-06T22:26:12.719Z,75.54
2023-10-06T22:29:33.787Z,75.43
2023-10-06T22:32:37.711Z,75.33
2023-10-06T22:35:41.069Z,75.68
2023-10-06T22:38:47.242Z,75.69
2023-10-06T22:42:14.408Z,76.18
2023-10-06T22:45:43.911Z,76.82
2023-10-06T22:49:06.968Z,75.48
2023-10-06T22:55:40.191Z,75.89
2023-10-06T22:58:48.286Z,76.23
2023-10-06T23:03:13.812Z,76.73
2023-10-06T23:06:31.199Z,76.39
2023-10-06T23:09:50.164Z,77.20
2023-10-06T23:12:54.572Z,76.78
2023-10-06T23:16:29.269Z,77.03
2023-10-06T23:19:43.262Z,77.23
2023-10-06T23:23:15.825Z,77.30
2023-10-06T23:26:22.728Z,77.33
2023-10-06T23:29:41.255Z,77.42
2023-10-06T23:38:25.655Z,78.11
2023-10-06T23:42:24.341Z,77.07
2023-10-06T23:45:55.436Z,77.50
2023-10-06T23:49:17.575Z,77.78
2023-10-06T23:52:26.643Z,77.55
2023-10-06T23:58:59.281Z,77.63
